Time;durP1;ratioP1;P1;durP2;ratioP2;P2;SDS_P1;SDS_P2;PMS_P1;PMS_P2;Temp;Humidity;BMP_temperature;BMP_pressure;BME280_temperature;BME280_humidity;BME280_pressure;Samples;Min_cycle;Max_cycle;Signal;HPM_P1;HPM_P2
2023/10/22 00:00:51;;;;;;;0.47;0.47;;;10.90;99.90;;;;;;7570350;19;20891;-72
2023/10/22 00:03:23;;;;;;;0.82;0.63;;;10.90;99.90;;;;;;7573699;19;20431;-72
2023/10/22 00:05:55;;;;;;;0.75;0.40;;;10.90;99.90;;;;;;7575686;19;20025;-72
2023/10/22 00:08:28;;;;;;;0.60;0.60;;;10.90;99.90;;;;;;7571235;19;20698;-72
2023/10/22 00:11:00;;;;;;;1.05;0.52;;;10.90;99.90;;;;;;7573297;19;20015;-72
2023/10/22 00:13:33;;;;;;;0.60;0.57;;;10.90;99.90;;;;;;7586646;19;21286;-72
2023/10/22 00:16:05;;;;;;;1.00;0.60;;;10.90;99.90;;;;;;7586038;19;20025;-72
2023/10/22 00:18:38;;;;;;;0.50;0.50;;;10.90;99.90;;;;;;7590900;19;20033;-72
2023/10/22 00:21:10;;;;;;;0.68;0.50;;;11.00;99.90;;;;;;7586427;19;20022;-72
2023/10/22 00:23:42;;;;;;;1.10;0.70;;;11.00;99.90;;;;;;7588476;19;20018;-72
2023/10/22 00:26:15;;;;;;;0.82;0.50;;;10.90;99.90;;;;;;7586308;19;20068;-70
2023/10/22 00:28:49;;;;;;;1.00;0.52;;;11.00;99.90;;;;;;7581807;19;20051;-72
2023/10/22 00:31:22;;;;;;;3.90;0.70;;;11.00;99.90;;;;;;7582000;19;20101;-72
2023/10/22 00:33:55;;;;;;;0.82;0.50;;;11.00;99.90;;;;;;7592489;19;20628;-73
2023/10/22 00:36:28;;;;;;;1.48;0.70;;;10.90;99.90;;;;;;7590813;19;21045;-72
2023/10/22 00:39:01;;;;;;;3.63;0.90;;;11.00;99.90;;;;;;7444777;19;2769723;-72
2023/10/22 00:41:33;;;;;;;1.92;0.60;;;11.00;99.90;;;;;;7582595;19;20025;-72
2023/10/22 00:44:06;;;;;;;0.60;0.60;;;10.90;99.90;;;;;;7568404;19;20022;-72
2023/10/22 00:46:39;;;;;;;1.27;0.60;;;11.00;99.90;;;;;;7579367;19;20287;-72
2023/10/22 00:49:13;;;;;;;0.67;0.53;;;11.00;99.90;;;;;;7588890;19;20026;-72
2023/10/22 00:51:46;;;;;;;1.45;0.57;;;11.00;99.90;;;;;;7571981;19;20279;-72
2023/10/22 00:54:19;;;;;;;;;;;11.00;99.90;;;;;;7572373;19;20543;-72
2023/10/22 00:56:53;;;;;;;1.50;0.60;;;11.00;99.90;;;;;;7581053;19;19929;-72
2023/10/22 00:59:25;;;;;;;0.50;0.50;;;10.90;99.90;;;;;;7572612;19;20022;-72
2023/10/22 01:01:59;;;;;;;2.47;0.80;;;10.90;99.90;;;;;;7566920;19;20618;-72
2023/10/22 01:04:31;;;;;;;1.77;0.63;;;10.80;99.90;;;;;;7579652;19;20021;-72
2023/10/22 01:07:06;;;;;;;3.47;0.77;;;10.80;99.90;;;;;;7578674;19;20098;-72
2023/10/22 01:09:38;;;;;;;1.75;1.15;;;10.90;99.90;;;;;;7575607;19;20287;-71
2023/10/22 01:12:10;;;;;;;1.00;0.70;;;10.90;99.90;;;;;;7579054;19;21689;-71
2023/10/22 01:14:43;;;;;;;0.93;0.80;;;10.90;99.90;;;;;;7569191;19;20006;-71
2023/10/22 01:17:15;;;;;;;0.98;0.70;;;10.90;99.90;;;;;;7578385;19;22438;-71
2023/10/22 01:19:47;;;;;;;0.80;0.75;;;10.70;99.90;;;;;;7571959;19;20026;-71
2023/10/22 01:22:20;;;;;;;0.73;0.60;;;10.70;99.90;;;;;;7575430;19;20370;-72
2023/10/22 01:24:52;;;;;;;0.60;0.50;;;10.80;99.90;;;;;;7581964;19;20063;-71
2023/10/22 01:27:25;;;;;;;1.23;0.60;;;10.80;99.90;;;;;;7569833;19;20034;-71
2023/10/22 01:29:58;;;;;;;0.73;0.60;;;10.80;99.90;;;;;;7580581;19;20038;-71
2023/10/22 01:32:31;;;;;;;3.13;0.98;;;10.80;99.90;;;;;;7572032;19;20018;-71
2023/10/22 01:35:03;;;;;;;2.05;0.63;;;10.80;99.90;;;;;;7573108;19;20010;-71
2023/10/22 01:37:36;;;;;;;1.15;0.75;;;10.80;99.90;;;;;;7559762;19;20018;-71
2023/10/22 01:40:09;;;;;;;1.17;0.60;;;10.70;99.90;;;;;;7569489;19;20018;-71
2023/10/22 01:42:41;;;;;;;1.50;0.50;;;10.70;99.90;;;;;;7572717;19;20029;-71
2023/10/22 01:45:13;;;;;;;2.30;0.68;;;10.70;99.90;;;;;;7580455;19;20048;-73
2023/10/22 01:47:46;;;;;;;0.88;0.60;;;10.70;99.90;;;;;;7561272;19;20022;-70
2023/10/22 01:50:18;;;;;;;0.60;0.40;;;10.80;99.90;;;;;;7582721;19;20922;-70
2023/10/22 01:52:50;;;;;;;2.72;0.60;;;10.80;99.90;;;;;;7571648;19;20793;-73
2023/10/22 01:55:23;;;;;;;0.40;0.30;;;10.80;99.90;;;;;;7574182;19;20680;-71
2023/10/22 01:57:55;;;;;;;1.15;0.30;;;10.80;99.90;;;;;;7572289;19;20017;-73
2023/10/22 02:00:30;;;;;;;2.03;0.67;;;10.80;99.90;;;;;;7579852;19;20015;-73
2023/10/22 02:03:04;;;;;;;1.70;0.38;;;10.80;99.90;;;;;;7573660;19;20022;-73
2023/10/22 02:05:37;;;;;;;0.60;0.43;;;10.80;99.90;;;;;;7569130;19;20020;-72
2023/10/22 02:08:10;;;;;;;2.20;0.50;;;10.70;99.90;;;;;;7565854;19;20057;-72
2023/10/22 02:10:42;;;;;;;0.98;0.50;;;10.70;99.90;;;;;;7569769;19;20767;-73
2023/10/22 02:13:14;;;;;;;6.88;0.50;;;10.80;99.90;;;;;;7577051;19;20022;-73
2023/10/22 02:15:47;;;;;;;1.65;0.50;;;10.80;99.90;;;;;;7576402;19;20650;-72
2023/10/22 02:18:19;;;;;;;0.80;0.50;;;10.80;99.90;;;;;;7567384;19;20401;-72
2023/10/22 02:20:56;;;;;;;0.45;0.30;;;10.80;99.90;;;;;;7571060;19;20283;-72
2023/10/22 02:23:29;;;;;;;0.75;0.40;;;10.80;99.90;;;;;;7570491;19;20014;-72
2023/10/22 02:26:03;;;;;;;1.95;0.40;;;10.80;99.90;;;;;;7579077;19;20103;-72
2023/10/22 02:28:36;;;;;;;0.90;0.40;;;10.80;99.90;;;;;;7587359;19;20515;-72
2023/10/22 02:31:10;;;;;;;0.85;0.50;;;10.80;99.90;;;;;;7581395;19;20025;-72
2023/10/22 02:33:43;;;;;;;0.50;0.32;;;10.80;99.90;;;;;;7573075;19;20022;-73
2023/10/22 02:36:15;;;;;;;0.32;0.32;;;10.80;99.90;;;;;;7565342;19;20014;-72
2023/10/22 02:38:47;;;;;;;1.15;0.30;;;10.90;99.90;;;;;;7574580;19;20018;-72
2023/10/22 02:41:20;;;;;;;1.67;0.50;;;10.80;99.90;;;;;;7588484;19;20018;-72
2023/10/22 02:43:53;;;;;;;1.25;0.45;;;10.90;99.90;;;;;;7569738;19;20990;-72
2023/10/22 02:46:26;;;;;;;0.93;0.40;;;10.90;99.90;;;;;;7581636;19;20018;-72
2023/10/22 02:48:58;;;;;;;1.45;0.40;;;11.00;99.90;;;;;;7586873;19;20022;-72
2023/10/22 02:51:32;;;;;;;1.95;0.50;;;10.90;99.90;;;;;;7585815;19;20087;-72
2023/10/22 02:54:04;;;;;;;2.25;1.15;;;10.90;99.90;;;;;;7581267;19;20022;-72
2023/10/22 02:56:39;;;;;;;1.95;0.90;;;10.90;99.90;;;;;;7574846;19;20022;-71
2023/10/22 02:59:11;;;;;;;2.38;1.10;;;10.90;99.90;;;;;;7574514;19;20025;-72
2023/10/22 03:01:44;;;;;;;1.95;0.70;;;10.90;99.90;;;;;;7595502;19;20021;-72
2023/10/22 03:04:16;;;;;;;0.77;0.60;;;10.80;99.90;;;;;;7589030;19;20011;-71
2023/10/22 03:06:49;;;;;;;0.60;0.35;;;10.80;99.90;;;;;;7591369;19;22367;-72
2023/10/22 03:09:21;;;;;;;2.17;0.52;;;10.80;99.90;;;;;;7584620;19;20011;-71
2023/10/22 03:11:54;;;;;;;2.42;0.52;;;10.80;99.90;;;;;;7580430;19;21500;-72
2023/10/22 03:14:26;;;;;;;2.63;0.50;;;10.90;99.90;;;;;;7590472;19;20015;-72
2023/10/22 03:16:58;;;;;;;1.77;0.52;;;10.80;99.90;;;;;;7584290;19;20042;-71
2023/10/22 03:19:30;;;;;;;4.95;0.50;;;10.80;99.90;;;;;;7585877;19;20051;-71
2023/10/22 03:22:04;;;;;;;0.50;0.40;;;10.80;99.90;;;;;;7587405;19;20371;-71
2023/10/22 03:24:36;;;;;;;;;;;10.80;99.90;;;;;;7585534;19;20771;-71
2023/10/22 03:27:10;;;;;;;0.90;0.40;;;10.80;99.90;;;;;;7583268;19;19934;-71
2023/10/22 03:29:43;;;;;;;1.45;0.60;;;10.80;99.90;;;;;;7585449;19;20019;-71
2023/10/22 03:32:16;;;;;;;0.77;0.45;;;10.70;99.90;;;;;;7574953;19;20958;-71
2023/10/22 03:34:48;;;;;;;0.38;0.38;;;10.80;99.90;;;;;;7587764;19;20129;-71
2023/10/22 03:37:20;;;;;;;2.00;0.65;;;10.80;99.90;;;;;;7582468;19;20046;-72
2023/10/22 03:39:52;;;;;;;0.98;0.55;;;10.80;99.90;;;;;;7573378;19;20717;-72
2023/10/22 03:42:25;;;;;;;0.60;0.50;;;10.80;99.90;;;;;;7580954;19;20024;-71
2023/10/22 03:44:57;;;;;;;1.13;0.70;;;10.80;99.90;;;;;;7582777;19;20014;-71
2023/10/22 03:47:30;;;;;;;2.43;1.37;;;10.70;99.90;;;;;;7580543;19;20110;-71
2023/10/22 03:50:02;;;;;;;4.80;1.40;;;10.70;99.90;;;;;;7594991;19;20026;-71
2023/10/22 03:52:34;;;;;;;1.98;1.00;;;10.70;99.90;;;;;;7579421;19;20400;-72
2023/10/22 03:55:09;;;;;;;3.55;1.00;;;10.70;99.90;;;;;;7582121;19;21186;-71
2023/10/22 03:57:41;;;;;;;3.22;1.00;;;10.70;99.90;;;;;;7592732;19;20042;-72
2023/10/22 04:00:14;;;;;;;2.92;1.48;;;10.70;99.90;;;;;;7579938;19;20353;-71
2023/10/22 04:02:47;;;;;;;0.60;0.60;;;10.70;99.90;;;;;;7585838;19;20018;-72
2023/10/22 04:05:19;;;;;;;1.95;0.52;;;10.70;99.90;;;;;;7587763;19;20033;-72
2023/10/22 04:07:51;;;;;;;1.88;0.55;;;10.70;99.90;;;;;;7584824;19;20476;-72
2023/10/22 04:10:24;;;;;;;0.40;0.40;;;10.60;99.90;;;;;;7586742;19;20046;-72
2023/10/22 04:12:56;;;;;;;2.75;0.80;;;10.70;99.90;;;;;;7579948;19;20029;-71
2023/10/22 04:15:35;;;;;;;6.47;1.10;;;10.70;99.90;;;;;;7580953;19;20088;-72
2023/10/22 04:18:07;;;;;;;1.85;0.88;;;10.60;99.90;;;;;;7591904;19;20018;-72
2023/10/22 04:20:41;;;;;;;4.05;2.20;;;10.60;99.90;;;;;;7584277;19;20026;-72
2023/10/22 04:23:13;;;;;;;1.95;1.13;;;10.70;99.90;;;;;;7589280;19;20022;-73
2023/10/22 04:25:46;;;;;;;3.33;1.50;;;10.70;99.90;;;;;;7599103;19;20010;-70
2023/10/22 04:28:18;;;;;;;4.10;1.20;;;10.60;99.90;;;;;;7585663;19;20006;-73
2023/10/22 04:30:50;;;;;;;5.45;1.00;;;10.60;99.90;;;;;;7574830;19;20405;-70
2023/10/22 04:33:23;;;;;;;2.30;1.20;;;10.60;99.90;;;;;;7592872;19;22093;-73
2023/10/22 04:35:55;;;;;;;3.13;0.80;;;10.60;99.90;;;;;;7593758;19;21038;-72
2023/10/22 04:38:28;;;;;;;5.30;0.77;;;10.70;99.90;;;;;;7581600;19;20054;-73
2023/10/22 04:41:01;;;;;;;1.42;0.80;;;10.70;99.90;;;;;;7596073;19;20010;-72
2023/10/22 04:43:33;;;;;;;1.27;0.88;;;10.70;99.90;;;;;;7581634;19;20002;-70
2023/10/22 04:46:05;;;;;;;4.22;0.90;;;10.60;99.90;;;;;;7589997;19;20539;-73
2023/10/22 04:48:37;;;;;;;1.40;0.50;;;10.50;99.90;;;;;;7589799;19;20014;-71
2023/10/22 04:51:09;;;;;;;1.40;0.68;;;10.50;99.90;;;;;;7592551;19;20014;-73
2023/10/22 04:53:42;;;;;;;1.85;0.73;;;10.50;99.90;;;;;;7588669;19;20022;-71
2023/10/22 04:56:14;;;;;;;1.30;0.57;;;10.60;99.90;;;;;;7586601;19;20021;-73
2023/10/22 04:58:47;;;;;;;1.27;0.82;;;10.60;99.90;;;;;;7578412;19;20025;-70
2023/10/22 05:01:19;;;;;;;2.80;1.02;;;10.60;99.90;;;;;;7595027;19;20086;-71
2023/10/22 05:03:52;;;;;;;2.55;1.20;;;10.60;99.90;;;;;;7591272;19;20042;-73
2023/10/22 05:06:24;;;;;;;4.22;1.10;;;10.60;99.90;;;;;;7591255;19;20030;-73
2023/10/22 05:08:56;;;;;;;3.92;1.17;;;10.60;99.90;;;;;;7596118;19;20476;-71
2023/10/22 05:11:28;;;;;;;3.53;1.30;;;10.50;99.90;;;;;;7593253;19;20086;-73
2023/10/22 05:14:01;;;;;;;1.80;1.13;;;10.60;99.90;;;;;;7600837;19;20026;-71
2023/10/22 05:16:33;;;;;;;1.00;0.73;;;10.60;99.90;;;;;;7594169;19;20021;-71
2023/10/22 05:19:06;;;;;;;1.75;0.88;;;10.50;99.90;;;;;;7588032;19;20002;-71
2023/10/22 05:21:38;;;;;;;1.48;0.38;;;10.60;99.90;;;;;;7590543;19;20048;-71
2023/10/22 05:24:10;;;;;;;1.05;0.50;;;10.60;99.90;;;;;;7596507;19;20046;-71
2023/10/22 05:26:43;;;;;;;1.83;0.70;;;10.50;99.90;;;;;;7588408;19;20007;-72
2023/10/22 05:29:15;;;;;;;1.83;0.73;;;10.60;99.90;;;;;;7591531;19;20014;-73
2023/10/22 05:31:47;;;;;;;2.33;0.68;;;10.50;99.90;;;;;;7582904;19;20110;-73
2023/10/22 05:34:19;;;;;;;2.95;0.82;;;10.50;99.90;;;;;;7574434;19;20631;-73
2023/10/22 05:36:51;;;;;;;4.78;1.40;;;10.60;99.90;;;;;;7583008;19;21094;-73
2023/10/22 05:39:24;;;;;;;8.98;3.60;;;10.50;99.90;;;;;;7587948;19;20117;-72
2023/10/22 05:41:56;;;;;;;5.07;2.27;;;10.50;99.90;;;;;;7598387;19;20018;-73
2023/10/22 05:44:29;;;;;;;3.17;1.98;;;10.50;99.90;;;;;;7589299;19;20271;-72
2023/10/22 05:47:01;;;;;;;2.78;1.70;;;10.60;99.90;;;;;;7581089;19;20014;-72
2023/10/22 05:49:34;;;;;;;12.43;1.70;;;10.50;99.90;;;;;;7586477;19;20029;-73
2023/10/22 05:52:06;;;;;;;1.15;0.85;;;10.50;99.90;;;;;;7592938;19;20022;-70
2023/10/22 05:54:38;;;;;;;2.30;0.40;;;10.60;99.90;;;;;;7583112;19;20018;-73
2023/10/22 05:57:11;;;;;;;1.67;0.70;;;10.60;99.90;;;;;;7601982;19;20010;-72
2023/10/22 05:59:43;;;;;;;1.48;0.57;;;10.60;99.90;;;;;;7584924;19;20040;-73
2023/10/22 06:02:15;;;;;;;2.25;0.90;;;10.60;99.90;;;;;;7598520;19;20003;-73
2023/10/22 06:04:48;;;;;;;1.15;0.68;;;10.60;99.90;;;;;;7591195;19;20026;-71
2023/10/22 06:07:20;;;;;;;1.25;0.50;;;10.60;99.90;;;;;;7595063;19;20022;-70
2023/10/22 06:09:53;;;;;;;0.87;0.63;;;10.60;99.90;;;;;;7597960;19;20286;-71
2023/10/22 06:12:25;;;;;;;5.05;0.80;;;10.60;99.90;;;;;;7590000;19;20022;-71
2023/10/22 06:15:03;;;;;;;2.33;0.60;;;10.60;99.90;;;;;;7595874;19;20615;-71
2023/10/22 06:17:36;;;;;;;2.78;0.60;;;10.60;99.90;;;;;;7591238;19;20041;-71
2023/10/22 06:20:10;;;;;;;1.05;0.47;;;10.70;99.90;;;;;;7589986;19;20022;-71
2023/10/22 06:22:44;;;;;;;2.10;1.00;;;10.60;99.90;;;;;;7592114;19;20018;-72
2023/10/22 06:25:17;;;;;;;1.40;1.15;;;10.60;99.90;;;;;;7590784;19;20381;-73
2023/10/22 06:27:50;;;;;;;3.75;1.00;;;10.60;99.90;;;;;;7595034;19;20518;-73
2023/10/22 06:30:23;;;;;;;4.13;1.42;;;10.60;99.90;;;;;;7599622;19;20018;-71
2023/10/22 06:32:58;;;;;;;1.60;0.77;;;10.60;99.90;;;;;;7585931;19;20139;-73
2023/10/22 06:35:31;;;;;;;2.80;0.82;;;10.70;99.90;;;;;;7595877;19;20030;-73
2023/10/22 06:38:03;;;;;;;4.30;1.02;;;10.70;99.90;;;;;;7598495;19;20078;-73
2023/10/22 06:40:36;;;;;;;2.80;1.42;;;10.80;99.90;;;;;;7598678;19;20033;-72
2023/10/22 06:43:09;;;;;;;4.63;1.70;;;10.80;99.90;;;;;;7594948;19;20021;-72
2023/10/22 06:45:41;;;;;;;2.60;1.05;;;10.80;99.90;;;;;;7589441;19;20853;-72
2023/10/22 06:48:13;;;;;;;1.02;0.90;;;10.90;99.90;;;;;;7595865;19;20037;-72
2023/10/22 06:50:46;;;;;;;2.47;1.00;;;10.90;99.90;;;;;;7592320;19;20090;-72
2023/10/22 06:53:18;;;;;;;5.60;1.10;;;10.90;99.90;;;;;;7589572;19;20845;-72
2023/10/22 06:55:50;;;;;;;1.88;1.00;;;10.90;99.90;;;;;;7596649;19;20045;-72
2023/10/22 06:58:22;;;;;;;1.27;0.90;;;10.90;99.90;;;;;;7596357;19;20015;-72
2023/10/22 07:01:11;;;;;;;1.80;1.08;;;11.00;99.90;;;;;;7592215;19;20082;-72
2023/10/22 07:03:45;;;;;;;0.85;0.80;;;11.00;99.90;;;;;;7602598;19;20513;-73
2023/10/22 07:06:18;;;;;;;1.55;0.70;;;11.10;99.90;;;;;;7608341;19;20622;-72
2023/10/22 07:08:50;;;;;;;1.00;0.90;;;11.10;99.90;;;;;;7585184;19;20454;-72
2023/10/22 07:11:23;;;;;;;1.23;0.82;;;11.10;99.90;;;;;;7602802;19;20054;-71
2023/10/22 07:13:55;;;;;;;2.92;0.77;;;11.10;99.90;;;;;;7595788;19;20026;-71
2023/10/22 07:16:27;;;;;;;2.15;0.60;;;11.00;99.90;;;;;;7601241;19;20010;-72
2023/10/22 07:19:00;;;;;;;1.67;1.13;;;11.00;99.90;;;;;;7603133;19;20018;-71
2023/10/22 07:21:32;;;;;;;1.50;1.30;;;11.10;99.90;;;;;;7608107;19;20042;-72
2023/10/22 07:24:05;;;;;;;1.73;1.10;;;11.10;99.90;;;;;;7609153;19;20023;-72
2023/10/22 07:26:38;;;;;;;2.13;1.33;;;11.10;99.90;;;;;;7605449;19;20021;-71
2023/10/22 07:29:12;;;;;;;1.98;1.27;;;11.10;99.90;;;;;;7601954;19;20015;-72
2023/10/22 07:31:47;;;;;;;1.77;1.10;;;11.10;99.90;;;;;;7592651;19;20014;-72
2023/10/22 07:34:20;;;;;;;1.77;1.30;;;11.20;99.90;;;;;;7571927;19;20835;-72
2023/10/22 07:36:52;;;;;;;3.40;1.30;;;11.20;99.90;;;;;;7578160;19;20018;-72
2023/10/22 07:39:24;;;;;;;4.60;1.30;;;11.30;99.90;;;;;;7569481;19;20413;-71
2023/10/22 07:41:56;;;;;;;2.15;1.60;;;11.30;99.90;;;;;;7556304;19;20036;-72
2023/10/22 07:44:29;;;;;;;1.90;1.37;;;11.40;99.90;;;;;;7573119;19;20023;-71
2023/10/22 07:47:02;;;;;;;1.52;1.42;;;11.50;99.90;;;;;;7571379;19;20034;-71
2023/10/22 07:49:35;;;;;;;2.53;1.63;;;11.50;99.90;;;;;;7575809;19;20006;-72
2023/10/22 07:52:07;;;;;;;2.28;1.30;;;11.60;99.90;;;;;;7588123;19;20083;-72
2023/10/22 07:54:39;;;;;;;2.83;1.65;;;11.70;99.90;;;;;;7566717;19;20044;-73
2023/10/22 07:57:11;;;;;;;4.03;1.50;;;11.70;99.90;;;;;;7560265;19;20015;-71
2023/10/22 07:59:43;;;;;;;2.30;1.77;;;11.80;99.90;;;;;;7563150;19;20014;-71
2023/10/22 08:02:16;;;;;;;1.92;1.25;;;11.80;99.90;;;;;;7578839;19;20022;-71
2023/10/22 08:04:48;;;;;;;1.85;1.17;;;11.80;99.90;;;;;;7559687;19;20792;-70
2023/10/22 08:07:21;;;;;;;1.67;1.10;;;11.80;99.90;;;;;;7544351;19;21495;-70
2023/10/22 08:09:53;;;;;;;3.53;1.13;;;11.90;99.90;;;;;;7571654;19;20022;-73
2023/10/22 08:12:25;;;;;;;1.77;1.10;;;11.90;99.90;;;;;;7570587;19;20471;-71
2023/10/22 08:14:58;;;;;;;1.45;1.00;;;11.90;99.90;;;;;;7566400;19;20007;-71
2023/10/22 08:17:30;;;;;;;2.55;1.10;;;12.00;99.90;;;;;;7569987;19;20018;-73
2023/10/22 08:20:03;;;;;;;4.40;1.63;;;11.90;99.90;;;;;;7560233;19;20026;-73
2023/10/22 08:22:36;;;;;;;6.07;1.65;;;11.90;99.90;;;;;;7570040;19;20392;-73
2023/10/22 08:25:09;;;;;;;3.10;1.40;;;12.00;99.90;;;;;;7555876;19;20006;-72
2023/10/22 08:27:41;;;;;;;3.22;1.67;;;12.00;99.90;;;;;;7545733;19;20546;-72
2023/10/22 08:30:14;;;;;;;4.23;1.53;;;12.00;99.90;;;;;;7555190;19;20014;-73
2023/10/22 08:32:49;;;;;;;2.35;1.20;;;12.10;99.90;;;;;;7556913;19;20029;-73
2023/10/22 08:35:21;;;;;;;2.97;1.60;;;12.20;99.90;;;;;;7571507;19;20029;-73
2023/10/22 08:37:53;;;;;;;3.20;0.98;;;12.20;99.90;;;;;;7565875;19;20326;-73
2023/10/22 08:40:27;;;;;;;3.63;2.03;;;12.30;99.90;;;;;;7577263;19;20661;-75
2023/10/22 08:43:00;;;;;;;;;;;12.30;99.90;;;;;;7560876;19;20043;-72
2023/10/22 08:45:33;;;;;;;2.53;1.73;;;12.30;99.90;;;;;;7546875;19;20251;-75
2023/10/22 08:48:08;;;;;;;4.07;1.40;;;12.40;99.90;;;;;;7565045;19;20010;-73
2023/10/22 08:50:46;;;;;;;3.20;1.10;;;12.30;99.90;;;;;;7569609;19;20010;-73
2023/10/22 08:53:19;;;;;;;1.40;0.93;;;12.40;99.90;;;;;;7557917;19;20013;-73
2023/10/22 08:55:51;;;;;;;2.47;0.98;;;12.40;99.90;;;;;;7563338;19;20063;-74
2023/10/22 08:58:24;;;;;;;4.88;1.25;;;12.40;99.90;;;;;;7555320;19;20037;-73
2023/10/22 09:00:56;;;;;;;2.85;1.00;;;12.40;99.90;;;;;;7556595;19;21751;-73
2023/10/22 09:03:31;;;;;;;2.10;1.15;;;12.40;99.90;;;;;;7547690;19;20022;-76
2023/10/22 09:06:05;;;;;;;3.70;1.33;;;12.40;99.90;;;;;;7553069;19;20102;-74
2023/10/22 09:08:42;;;;;;;3.85;1.30;;;12.40;99.90;;;;;;7543873;19;20019;-74
2023/10/22 09:11:16;;;;;;;2.05;0.95;;;12.30;99.90;;;;;;7547946;19;20510;-76
2023/10/22 09:13:49;;;;;;;4.25;1.10;;;12.40;99.90;;;;;;7539792;19;20019;-75
2023/10/22 09:16:32;;;;;;;2.03;0.98;;;12.50;99.90;;;;;;7538342;19;20022;-73
2023/10/22 09:19:04;;;;;;;2.03;1.10;;;12.50;99.90;;;;;;7559172;19;20015;-75
2023/10/22 09:21:41;;;;;;;1.75;1.00;;;12.50;99.90;;;;;;7547914;19;20089;-73
2023/10/22 09:24:13;;;;;;;3.28;1.40;;;12.50;99.90;;;;;;7543259;19;20818;-76
2023/10/22 09:26:47;;;;;;;1.90;1.20;;;12.50;99.90;;;;;;7542812;19;20093;-74
2023/10/22 09:29:20;;;;;;;1.90;1.05;;;12.40;99.90;;;;;;7541211;19;20098;-76
2023/10/22 09:31:56;;;;;;;3.40;1.10;;;12.60;99.90;;;;;;7542410;19;20637;-76
2023/10/22 09:34:33;;;;;;;5.40;1.92;;;12.70;99.90;;;;;;7550813;19;20644;-73
2023/10/22 09:37:05;;;;;;;6.63;3.22;;;12.80;99.90;;;;;;7547629;19;20054;-73
2023/10/22 09:39:39;;;;;;;3.55;1.23;;;13.00;99.90;;;;;;7550376;19;21031;-75
2023/10/22 09:42:13;;;;;;;1.80;0.98;;;13.20;99.90;;;;;;7560479;19;20018;-76
2023/10/22 09:44:50;;;;;;;3.30;0.93;;;13.40;99.90;;;;;;7535005;19;20007;-77
2023/10/22 09:47:25;;;;;;;1.58;0.75;;;13.60;99.90;;;;;;7531291;19;20011;-76
2023/10/22 09:50:07;;;;;;;4.43;0.77;;;13.70;99.90;;;;;;7545052;19;20368;-76
2023/10/22 09:52:42;;;;;;;5.15;1.40;;;13.80;99.90;;;;;;7552782;19;20492;-76
2023/10/22 09:55:16;;;;;;;4.38;1.00;;;13.80;99.90;;;;;;7550682;19;20018;-75
2023/10/22 09:57:49;;;;;;;;;;;13.90;99.90;;;;;;7544221;19;20018;-76
2023/10/22 10:00:21;;;;;;;2.45;0.93;;;13.90;99.90;;;;;;7547037;19;20494;-76
2023/10/22 10:03:04;;;;;;;2.65;0.88;;;14.00;99.90;;;;;;7550007;19;20914;-76
2023/10/22 10:05:37;;;;;;;3.75;1.02;;;14.10;99.90;;;;;;7552031;19;20055;-76
2023/10/22 10:08:10;;;;;;;1.17;0.75;;;14.30;99.90;;;;;;7549595;19;20055;-76
2023/10/22 10:10:45;;;;;;;2.33;0.80;;;14.40;99.90;;;;;;7564405;19;20025;-75
2023/10/22 10:13:17;;;;;;;3.20;0.90;;;14.50;99.90;;;;;;7560973;19;21148;-77
2023/10/22 10:16:01;;;;;;;6.25;1.00;;;14.60;99.90;;;;;;7554243;19;20093;-77
2023/10/22 10:19:00;;;;;;;2.25;1.05;;;14.50;99.90;;;;;;7545919;19;20014;-75
2023/10/22 10:21:39;;;;;;;1.40;0.85;;;14.50;99.90;;;;;;7550893;19;20014;-74
2023/10/22 10:24:15;;;;;;;2.28;0.88;;;14.60;99.90;;;;;;7557135;19;20134;-76
2023/10/22 10:26:50;;;;;;;3.97;0.90;;;14.70;99.90;;;;;;7576625;19;20899;-74
2023/10/22 10:29:25;;;;;;;2.92;0.80;;;14.90;99.90;;;;;;7564622;19;20010;-76
2023/10/22 10:32:13;;;;;;;3.13;0.65;;;14.90;99.90;;;;;;7577576;19;20022;-75
2023/10/22 10:34:50;;;;;;;3.28;0.82;;;14.80;99.90;;;;;;7578177;19;20018;-75
2023/10/22 10:37:24;;;;;;;2.78;0.70;;;14.90;99.90;;;;;;7582779;19;20014;-76
2023/10/22 10:39:57;;;;;;;4.03;1.00;;;14.80;99.90;;;;;;7564686;19;20015;-76
2023/10/22 10:42:29;;;;;;;3.88;0.73;;;14.80;99.90;;;;;;7574398;19;20051;-76
2023/10/22 10:45:08;;;;;;;1.98;0.80;;;14.90;99.90;;;;;;7567346;19;20026;-76
2023/10/22 10:47:40;;;;;;;4.82;0.80;;;15.00;99.90;;;;;;7578845;19;20614;-75
2023/10/22 10:50:18;;;;;;;1.63;0.50;;;15.10;99.90;;;;;;7580648;19;20067;-76
2023/10/22 10:52:56;;;;;;;1.70;0.68;;;15.20;99.90;;;;;;7577967;19;20026;-76
2023/10/22 10:55:32;;;;;;;2.53;0.70;;;15.20;99.90;;;;;;7576049;19;20014;-75
2023/10/22 10:58:04;;;;;;;2.20;0.60;;;15.20;99.90;;;;;;7573513;19;20018;-75
2023/10/22 11:00:36;;;;;;;2.00;0.73;;;15.40;99.90;;;;;;7573178;19;20558;-75
2023/10/22 11:03:29;;;;;;;1.67;0.85;;;15.40;99.90;;;;;;7568988;19;20022;-76
2023/10/22 11:06:01;;;;;;;1.40;0.70;;;15.60;99.90;;;;;;7568338;19;20019;-74
2023/10/22 11:08:33;;;;;;;4.75;1.17;;;15.70;99.90;;;;;;7581285;19;20022;-74
2023/10/22 11:11:13;;;;;;;2.00;1.00;;;16.00;99.90;;;;;;7586544;19;20047;-75
2023/10/22 11:13:46;;;;;;;2.97;0.65;;;16.20;99.90;;;;;;7589468;19;20559;-74
2023/10/22 11:16:19;;;;;;;4.00;1.08;;;16.70;99.90;;;;;;7573686;19;20038;-76
2023/10/22 11:18:56;;;;;;;3.23;0.73;;;18.20;99.90;;;;;;7568285;19;20064;-75
2023/10/22 11:21:29;;;;;;;0.75;0.60;;;22.10;96.00;;;;;;7594083;19;20011;-75
2023/10/22 11:24:01;;;;;;;1.60;0.63;;;25.30;89.60;;;;;;7592282;19;20819;-74
2023/10/22 11:26:34;;;;;;;1.20;0.70;;;26.80;75.00;;;;;;7571988;19;20023;-76
2023/10/22 11:29:07;;;;;;;2.03;1.02;;;27.00;69.60;;;;;;7572258;19;20022;-75
2023/10/22 11:31:39;;;;;;;2.63;0.90;;;27.90;63.70;;;;;;7561974;19;20022;-76
2023/10/22 11:34:18;;;;;;;1.63;0.80;;;27.40;62.70;;;;;;7567294;19;20956;-76
2023/10/22 11:37:00;;;;;;;2.35;0.73;;;29.00;63.10;;;;;;7550689;19;20014;-76
2023/10/22 11:39:36;;;;;;;2.38;0.90;;;29.20;58.70;;;;;;7550680;19;20032;-76
2023/10/22 11:42:13;;;;;;;1.88;1.00;;;30.30;58.10;;;;;;7563409;19;20019;-74
2023/10/22 11:44:46;;;;;;;3.33;0.82;;;29.20;55.10;;;;;;7589189;19;20018;-75
2023/10/22 11:47:27;;;;;;;0.60;0.60;;;29.30;54.30;;;;;;7589307;19;20040;-74
2023/10/22 11:50:02;;;;;;;0.88;0.50;;;28.80;55.80;;;;;;7583604;19;20018;-74
2023/10/22 11:52:35;;;;;;;2.20;0.70;;;25.10;58.60;;;;;;7588071;19;20011;-73
2023/10/22 11:55:09;;;;;;;2.35;0.68;;;22.90;65.70;;;;;;7594971;19;20661;-73
2023/10/22 11:57:59;;;;;;;3.38;0.73;;;22.60;63.70;;;;;;7586060;19;20011;-76
2023/10/22 12:00:31;;;;;;;1.55;0.60;;;21.10;67.60;;;;;;7591394;19;20021;-75
2023/10/22 12:03:04;;;;;;;1.55;0.80;;;20.40;70.00;;;;;;7589496;19;20048;-75
2023/10/22 12:05:37;;;;;;;2.53;0.80;;;19.80;71.60;;;;;;7577254;19;20021;-74
2023/10/22 12:08:09;;;;;;;1.00;0.43;;;19.50;70.60;;;;;;7573355;19;20467;-75
2023/10/22 12:10:42;;;;;;;2.63;0.90;;;19.40;74.80;;;;;;7556554;19;20759;-76
2023/10/22 12:13:14;;;;;;;1.85;0.73;;;19.10;72.90;;;;;;7558780;19;20018;-75
2023/10/22 12:15:49;;;;;;;1.60;0.70;;;18.80;76.00;;;;;;7569918;19;20021;-75
2023/10/22 12:18:23;;;;;;;1.45;0.73;;;18.30;77.40;;;;;;7548463;19;20341;-76
2023/10/22 12:20:56;;;;;;;3.97;0.60;;;18.60;76.40;;;;;;7560157;19;20018;-76
2023/10/22 12:23:28;;;;;;;1.23;0.70;;;19.00;75.70;;;;;;7562387;19;20087;-75
2023/10/22 12:26:17;;;;;;;2.95;0.70;;;18.90;75.40;;;;;;7557353;19;20041;-76
2023/10/22 12:28:49;;;;;;;0.88;0.50;;;18.90;77.30;;;;;;7565571;19;20055;-77
2023/10/22 12:31:22;;;;;;;1.98;0.65;;;19.30;75.60;;;;;;7555167;19;20011;-75
2023/10/22 12:33:54;;;;;;;1.48;0.90;;;18.60;77.80;;;;;;7538711;19;20018;-74
2023/10/22 12:36:27;;;;;;;1.45;0.77;;;18.60;79.80;;;;;;7540325;19;20082;-75
2023/10/22 12:38:59;;;;;;;2.80;0.98;;;19.00;79.20;;;;;;7546528;19;20014;-74
2023/10/22 12:41:32;;;;;;;1.47;0.73;;;18.80;76.60;;;;;;7541358;19;20373;-74
2023/10/22 12:44:04;;;;;;;1.98;0.60;;;21.00;74.20;;;;;;7539854;19;20029;-74
2023/10/22 12:46:37;;;;;;;1.73;0.70;;;21.20;70.90;;;;;;7542428;19;20014;-74
2023/10/22 12:49:09;;;;;;;1.42;0.75;;;21.70;68.50;;;;;;7565977;19;20011;-75
2023/10/22 12:51:41;;;;;;;2.20;0.80;;;20.40;72.70;;;;;;7551317;19;20014;-75
2023/10/22 12:54:14;;;;;;;1.25;0.55;;;19.50;73.70;;;;;;7550377;19;20400;-77
2023/10/22 12:56:47;;;;;;;3.80;0.87;;;;;;;;;;7556260;19;20014;-77
2023/10/22 12:59:19;;;;;;;1.15;0.60;;;19.90;74.70;;;;;;7554359;19;20014;-77
2023/10/22 13:01:52;;;;;;;1.52;0.60;;;20.50;69.40;;;;;;7551502;19;21033;-74
2023/10/22 13:04:25;;;;;;;1.48;0.70;;;20.30;71.70;;;;;;7518460;19;20078;-71
2023/10/22 13:06:58;;;;;;;0.60;0.50;;;19.60;71.50;;;;;;7573660;19;21318;-74
2023/10/22 13:09:31;;;;;;;2.38;0.60;;;19.00;72.80;;;;;;7567514;19;20927;-77
2023/10/22 13:12:04;;;;;;;1.02;0.40;;;18.60;75.20;;;;;;7573004;19;20090;-75
2023/10/22 13:14:36;;;;;;;2.17;0.80;;;18.30;78.30;;;;;;7533466;19;20010;-75
2023/10/22 13:17:08;;;;;;;1.50;0.70;;;18.20;77.10;;;;;;7530487;19;20489;-75
2023/10/22 13:19:41;;;;;;;1.25;0.57;;;17.90;78.70;;;;;;7535304;19;20022;-74